SELYH ESOK-ESOK

Flight info

Callsign SELYH
Flight time 1h 6m
Altitude 1500
Route GA VFR
Aircraft P28A/L-V/N

Departure

Time 2026-05-06 19:33
Airport Karlstad Airport (ESOK)

Arrival

Time 2026-05-06 20:39
Airport Karlstad Airport (ESOK)
Time Latitude Longitude Altitude Speed Heading
2026-05-06 19:23 59.44126 13.34197 336 ft 0 kts 115°
2026-05-06 19:25 59.44122 13.34192 336 ft 2 kts 282°
2026-05-06 19:26 59.44124 13.34188 336 ft 0 kts 300°
2026-05-06 19:29 59.44124 13.34187 336 ft 0 kts 300°
2026-05-06 19:29 59.44155 13.34156 336 ft 14 kts 343°
2026-05-06 19:29 59.44248 13.33923 336 ft 27 kts 296°
2026-05-06 19:30 59.44287 13.33761 334 ft 0 kts 296°
2026-05-06 19:30 59.44298 13.33715 333 ft 12 kts 294°
2026-05-06 19:30 59.44266 13.33510 336 ft 16 kts 216°
2026-05-06 19:31 59.44244 13.33510 336 ft 4 kts 109°
2026-05-06 19:31 59.44250 13.33529 333 ft 0 kts 26°
2026-05-06 19:31 59.44707 13.33958 351 ft 91 kts 25°
2026-05-06 19:32 59.45364 13.34473 537 ft 110 kts
2026-05-06 19:32 59.45948 13.33585 727 ft 122 kts 297°
2026-05-06 19:32 59.46352 13.32028 853 ft 136 kts 295°
2026-05-06 19:32 59.46785 13.30287 892 ft 146 kts 295°
2026-05-06 19:33 59.47242 13.28473 940 ft 149 kts 296°
2026-05-06 19:33 59.47487 13.26505 983 ft 149 kts 276°
2026-05-06 19:33 59.47604 13.24465 1035 ft 150 kts 276°
2026-05-06 19:33 59.47721 13.22421 1086 ft 151 kts 276°
2026-05-06 19:34 59.47818 13.20374 1127 ft 150 kts 268°
2026-05-06 19:34 59.47331 13.18644 1121 ft 152 kts 220°
2026-05-06 19:34 59.46475 13.17430 1190 ft 150 kts 216°
2026-05-06 19:34 59.45636 13.16273 1359 ft 145 kts 217°
2026-05-06 19:35 59.44800 13.15150 1434 ft 149 kts 216°
2026-05-06 19:35 59.43927 13.13998 1441 ft 153 kts 214°
2026-05-06 19:35 59.42991 13.12979 1436 ft 154 kts 205°
2026-05-06 19:35 59.41921 13.12637 1431 ft 157 kts 186°
2026-05-06 19:36 59.40828 13.12471 1442 ft 158 kts 186°
2026-05-06 19:36 59.39729 13.12296 1439 ft 159 kts 186°
2026-05-06 19:36 59.38627 13.12122 1432 ft 159 kts 186°
2026-05-06 19:36 59.37535 13.11839 1433 ft 158 kts 193°
2026-05-06 19:37 59.36457 13.11431 1433 ft 158 kts 193°
2026-05-06 19:37 59.35378 13.11033 1438 ft 157 kts 193°
2026-05-06 19:37 59.34302 13.10659 1433 ft 157 kts 187°
2026-05-06 19:37 59.33312 13.11430 1430 ft 161 kts 133°
2026-05-06 19:38 59.32937 13.13453 1433 ft 160 kts 97°
2026-05-06 19:38 59.32796 13.15628 1434 ft 161 kts 97°
2026-05-06 19:38 59.32651 13.17811 1437 ft 162 kts 97°
2026-05-06 19:38 59.32506 13.19999 1437 ft 162 kts 97°
2026-05-06 19:39 59.32360 13.22190 1439 ft 162 kts 97°
2026-05-06 19:39 59.32214 13.24381 1445 ft 162 kts 96°
2026-05-06 19:39 59.32067 13.26571 1439 ft 162 kts 97°
2026-05-06 19:39 59.31919 13.28758 1439 ft 162 kts 97°
2026-05-06 19:40 59.31771 13.30942 1440 ft 162 kts 97°
2026-05-06 19:40 59.31624 13.33130 1442 ft 162 kts 97°
2026-05-06 19:40 59.31542 13.35317 1427 ft 161 kts 79°
2026-05-06 19:40 59.32123 13.37106 1432 ft 157 kts 42°
2026-05-06 19:41 59.32912 13.38546 1434 ft 157 kts 41°
2026-05-06 19:41 59.33716 13.40017 1436 ft 158 kts 41°
2026-05-06 19:41 59.34518 13.41489 1442 ft 158 kts 41°
2026-05-06 19:41 59.35321 13.42964 1438 ft 158 kts 41°
2026-05-06 19:42 59.36122 13.44439 1438 ft 158 kts 41°
2026-05-06 19:42 59.36924 13.45914 1440 ft 158 kts 41°
2026-05-06 19:42 59.37727 13.47392 1440 ft 158 kts 41°
2026-05-06 19:42 59.38528 13.48870 1440 ft 158 kts 41°
2026-05-06 19:43 59.39331 13.50347 1440 ft 158 kts 41°
2026-05-06 19:43 59.40135 13.51827 1439 ft 158 kts 41°
2026-05-06 19:43 59.40939 13.53307 1438 ft 158 kts 41°
2026-05-06 19:43 59.41741 13.54788 1439 ft 158 kts 41°
2026-05-06 19:44 59.42545 13.56270 1438 ft 158 kts 41°
2026-05-06 19:44 59.43348 13.57750 1441 ft 158 kts 41°
2026-05-06 19:44 59.44150 13.59231 1441 ft 158 kts 41°
2026-05-06 19:44 59.44941 13.60696 1440 ft 158 kts 41°
2026-05-06 19:45 59.45742 13.62178 1445 ft 158 kts 41°
2026-05-06 19:45 59.46545 13.63668 1441 ft 159 kts 41°
2026-05-06 19:45 59.47356 13.65164 1436 ft 160 kts 41°
2026-05-06 19:45 59.48174 13.66668 1435 ft 161 kts 41°
2026-05-06 19:46 59.48990 13.68174 1444 ft 161 kts 41°
2026-05-06 19:46 59.49808 13.69682 1439 ft 161 kts 41°
2026-05-06 19:46 59.50627 13.71192 1444 ft 162 kts 41°
2026-05-06 19:46 59.51450 13.72711 1440 ft 162 kts 41°
2026-05-06 19:47 59.52272 13.74227 1440 ft 162 kts 41°
2026-05-06 19:47 59.53090 13.75760 1443 ft 163 kts 43°
2026-05-06 19:47 59.53880 13.77360 1441 ft 163 kts 46°
2026-05-06 19:47 59.54674 13.78912 1440 ft 163 kts 45°
2026-05-06 19:48 59.55458 13.80521 1438 ft 163 kts 46°
2026-05-06 19:48 59.56240 13.82135 1433 ft 162 kts 46°
2026-05-06 19:48 59.57020 13.83743 1433 ft 162 kts 46°
2026-05-06 19:48 59.57798 13.85345 1434 ft 162 kts 46°
2026-05-06 19:49 59.58575 13.86949 1432 ft 162 kts 46°
2026-05-06 19:49 59.59432 13.88410 1375 ft 164 kts 36°
2026-05-06 19:49 59.60393 13.89590 1354 ft 163 kts 23°
2026-05-06 19:49 59.61274 13.90826 1116 ft 163 kts 71°
2026-05-06 19:50 59.60807 13.92402 1226 ft 150 kts 177°
2026-05-06 19:50 59.60210 13.91010 1260 ft 146 kts 264°
2026-05-06 19:50 59.60078 13.88996 1252 ft 153 kts 259°
2026-05-06 19:50 59.59910 13.86945 1147 ft 142 kts 273°
2026-05-06 19:51 59.60547 13.86263 1135 ft 118 kts 59°
2026-05-06 19:51 59.60608 13.87801 1030 ft 119 kts 76°
2026-05-06 19:51 59.60769 13.89254 914 ft 98 kts 82°
2026-05-06 19:51 59.60860 13.90522 598 ft 85 kts 81°
2026-05-06 19:52 59.60911 13.91437 594 ft 47 kts 88°
2026-05-06 19:52 59.60927 13.91938 593 ft 27 kts 84°
2026-05-06 19:52 59.60928 13.92199 593 ft 14 kts 138°
2026-05-06 19:52 59.60917 13.92248 593 ft 0 kts 349°
2026-05-06 19:56 59.60943 13.92232 588 ft 6 kts 308°
2026-05-06 19:56 59.60935 13.92077 591 ft 33 kts 261°
2026-05-06 19:56 59.60890 13.91213 614 ft 88 kts 266°
2026-05-06 19:57 59.60844 13.89979 992 ft 84 kts 279°
2026-05-06 19:57 59.61305 13.89903 1150 ft 111 kts 49°
2026-05-06 19:57 59.61420 13.91379 1278 ft 123 kts 130°
2026-05-06 19:57 59.60841 13.92646 1279 ft 133 kts 133°
2026-05-06 19:58 59.60151 13.94163 924 ft 165 kts 131°
2026-05-06 19:58 59.59414 13.95934 832 ft 162 kts 127°
2026-05-06 19:58 59.58807 13.97684 1059 ft 148 kts 122°
2026-05-06 19:58 59.58430 13.99419 1417 ft 138 kts 94°
2026-05-06 19:59 59.58852 14.01182 1440 ft 151 kts 49°
2026-05-06 19:59 59.59570 14.02725 1459 ft 156 kts 44°
2026-05-06 19:59 59.60516 14.03524 1438 ft 154 kts
2026-05-06 19:59 59.61582 14.03681 1434 ft 155 kts 346°
2026-05-06 20:00 59.62549 14.02748 1442 ft 155 kts 328°
2026-05-06 20:00 59.63490 14.01683 1444 ft 157 kts 328°
2026-05-06 20:00 59.64437 14.00618 1448 ft 157 kts 328°
2026-05-06 20:00 59.65292 13.99319 1440 ft 154 kts 310°
2026-05-06 20:01 59.65990 13.97703 1444 ft 155 kts 308°
2026-05-06 20:01 59.66599 13.96286 1445 ft 156 kts 308°
2026-05-06 20:03 59.66821 13.95771 1451 ft 156 kts 308°
2026-05-06 20:03 59.67524 13.94140 1446 ft 156 kts 308°
2026-05-06 20:03 59.68230 13.92507 1447 ft 156 kts 308°
2026-05-06 20:03 59.68933 13.90876 1448 ft 156 kts 308°
2026-05-06 20:04 59.69649 13.89214 1446 ft 156 kts 308°
2026-05-06 20:04 59.70354 13.87587 1452 ft 155 kts 308°
2026-05-06 20:04 59.71049 13.85990 1448 ft 154 kts 309°
2026-05-06 20:04 59.71741 13.84384 1447 ft 152 kts 309°
2026-05-06 20:05 59.72426 13.82799 1455 ft 151 kts 308°
2026-05-06 20:05 59.73105 13.81215 1453 ft 150 kts 308°
2026-05-06 20:05 59.73781 13.79640 1440 ft 151 kts 309°
2026-05-06 20:05 59.74463 13.78051 1436 ft 152 kts 308°
2026-05-06 20:06 59.75147 13.76444 1443 ft 153 kts 308°
2026-05-06 20:06 59.75839 13.74829 1438 ft 154 kts 308°
2026-05-06 20:06 59.76526 13.73235 1440 ft 154 kts 309°
2026-05-06 20:06 59.77221 13.71614 1430 ft 154 kts 309°
2026-05-06 20:07 59.77914 13.69994 1427 ft 154 kts 309°
2026-05-06 20:07 59.78606 13.68372 1425 ft 153 kts 309°
2026-05-06 20:07 59.79296 13.66760 1424 ft 153 kts 309°
2026-05-06 20:07 59.79988 13.65153 1423 ft 153 kts 308°
2026-05-06 20:08 59.80684 13.63558 1423 ft 152 kts 309°
2026-05-06 20:08 59.81378 13.61966 1420 ft 152 kts 308°
2026-05-06 20:08 59.82069 13.60370 1420 ft 152 kts 308°
2026-05-06 20:08 59.82759 13.58772 1419 ft 153 kts 309°
2026-05-06 20:09 59.83453 13.57173 1420 ft 153 kts 309°
2026-05-06 20:09 59.84145 13.55569 1422 ft 153 kts 309°
2026-05-06 20:09 59.84835 13.53953 1424 ft 153 kts 309°
2026-05-06 20:09 59.85525 13.52351 1419 ft 152 kts 309°
2026-05-06 20:10 59.86214 13.50766 1416 ft 151 kts 309°
2026-05-06 20:10 59.86901 13.49187 1414 ft 151 kts 309°
2026-05-06 20:10 59.87589 13.47605 1416 ft 151 kts 309°
2026-05-06 20:10 59.88279 13.46009 1417 ft 152 kts 309°
2026-05-06 20:11 59.88968 13.44412 1422 ft 152 kts 309°
2026-05-06 20:11 59.89657 13.42816 1417 ft 152 kts 309°
2026-05-06 20:11 59.90346 13.41221 1413 ft 151 kts 309°
2026-05-06 20:11 59.91029 13.39637 1420 ft 151 kts 309°
2026-05-06 20:12 59.91704 13.38068 1415 ft 150 kts 309°
2026-05-06 20:12 59.92386 13.36504 1417 ft 150 kts 309°
2026-05-06 20:12 59.93068 13.34915 1418 ft 152 kts 309°
2026-05-06 20:12 59.93755 13.33317 1417 ft 152 kts 309°
2026-05-06 20:13 59.94446 13.31703 1418 ft 153 kts 309°
2026-05-06 20:13 59.95139 13.30086 1411 ft 153 kts 308°
2026-05-06 20:13 59.95414 13.28130 1406 ft 151 kts 259°
2026-05-06 20:13 59.94765 13.26565 1401 ft 154 kts 205°
2026-05-06 20:14 59.93726 13.26732 1404 ft 157 kts 151°
2026-05-06 20:14 59.92882 13.28132 1412 ft 158 kts 139°
2026-05-06 20:14 59.92061 13.29606 1441 ft 159 kts 139°
2026-05-06 20:14 59.91241 13.31090 1435 ft 160 kts 139°
2026-05-06 20:15 59.90417 13.32593 1437 ft 161 kts 139°
2026-05-06 20:15 59.89591 13.34101 1440 ft 161 kts 139°
2026-05-06 20:15 59.88786 13.35570 1433 ft 157 kts 139°
2026-05-06 20:15 59.87974 13.37047 1438 ft 159 kts 139°
2026-05-06 20:16 59.87154 13.38532 1435 ft 159 kts 139°
2026-05-06 20:16 59.86336 13.40019 1437 ft 160 kts 139°
2026-05-06 20:16 59.85515 13.41514 1444 ft 160 kts 139°
2026-05-06 20:16 59.84700 13.43000 1440 ft 158 kts 139°
2026-05-06 20:17 59.83889 13.44470 1439 ft 158 kts 139°
2026-05-06 20:17 59.83068 13.45945 1438 ft 159 kts 139°
2026-05-06 20:17 59.82249 13.47424 1444 ft 159 kts 139°
2026-05-06 20:17 59.81430 13.48901 1439 ft 160 kts 139°
2026-05-06 20:18 59.80606 13.50389 1441 ft 160 kts 139°
2026-05-06 20:18 59.79783 13.51871 1441 ft 160 kts 139°
2026-05-06 20:18 59.78965 13.53339 1441 ft 161 kts 139°
2026-05-06 20:18 59.78137 13.54823 1442 ft 161 kts 139°
2026-05-06 20:19 59.77307 13.56310 1440 ft 161 kts 140°
2026-05-06 20:19 59.76478 13.57793 1439 ft 160 kts 140°
2026-05-06 20:19 59.75654 13.59274 1446 ft 158 kts 141°
2026-05-06 20:19 59.74841 13.60762 1437 ft 158 kts 139°
2026-05-06 20:20 59.74308 13.61765 1440 ft 160 kts 139°
2026-05-06 20:20 59.73484 13.63289 1432 ft 162 kts 140°
2026-05-06 20:20 59.72662 13.64802 1425 ft 160 kts 140°
2026-05-06 20:20 59.71843 13.66301 1429 ft 161 kts 140°
2026-05-06 20:21 59.71017 13.67819 1429 ft 163 kts 140°
2026-05-06 20:21 59.70185 13.69346 1427 ft 164 kts 140°
2026-05-06 20:21 59.69345 13.70887 1430 ft 165 kts 140°
2026-05-06 20:21 59.68472 13.72314 1426 ft 161 kts 155°
2026-05-06 20:22 59.67435 13.73120 1425 ft 159 kts 164°
2026-05-06 20:22 59.66394 13.73858 1424 ft 159 kts 163°
2026-05-06 20:22 59.65350 13.74591 1422 ft 158 kts 164°
2026-05-06 20:22 59.64313 13.75323 1425 ft 158 kts 164°
2026-05-06 20:23 59.63273 13.76064 1433 ft 160 kts 164°
2026-05-06 20:23 59.62215 13.76815 1432 ft 162 kts 164°
2026-05-06 20:23 59.61165 13.77554 1438 ft 162 kts 164°
2026-05-06 20:23 59.60103 13.78303 1429 ft 161 kts 164°
2026-05-06 20:24 59.59044 13.79051 1436 ft 162 kts 164°
2026-05-06 20:24 59.57983 13.79803 1434 ft 161 kts 163°
2026-05-06 20:24 59.56929 13.80527 1425 ft 159 kts 164°
2026-05-06 20:24 59.55888 13.81243 1425 ft 159 kts 164°
2026-05-06 20:25 59.54844 13.81961 1426 ft 159 kts 164°
2026-05-06 20:25 59.53804 13.82675 1426 ft 158 kts 164°
2026-05-06 20:25 59.52746 13.83053 1418 ft 153 kts 193°
2026-05-06 20:25 59.51827 13.82094 1421 ft 150 kts 219°
2026-05-06 20:26 59.51004 13.80835 1420 ft 149 kts 220°
2026-05-06 20:26 59.50183 13.79587 1422 ft 149 kts 220°
2026-05-06 20:26 59.49360 13.78333 1421 ft 150 kts 220°
2026-05-06 20:26 59.48534 13.77077 1422 ft 150 kts 220°
2026-05-06 20:27 59.47718 13.75843 1420 ft 149 kts 220°
2026-05-06 20:27 59.46892 13.74598 1422 ft 150 kts 220°
2026-05-06 20:27 59.46063 13.73343 1421 ft 150 kts 220°
2026-05-06 20:27 59.45235 13.72096 1422 ft 150 kts 221°
2026-05-06 20:28 59.44395 13.70854 1423 ft 152 kts 220°
2026-05-06 20:28 59.43546 13.69600 1422 ft 153 kts 220°
2026-05-06 20:28 59.42699 13.68348 1421 ft 152 kts 220°
2026-05-06 20:28 59.41858 13.67114 1420 ft 153 kts 220°
2026-05-06 20:29 59.41007 13.65864 1420 ft 152 kts 220°
2026-05-06 20:29 59.40158 13.64615 1419 ft 152 kts 220°
2026-05-06 20:29 59.39313 13.63368 1418 ft 152 kts 220°
2026-05-06 20:29 59.38466 13.62127 1418 ft 152 kts 220°
2026-05-06 20:30 59.37617 13.60880 1417 ft 152 kts 220°
2026-05-06 20:30 59.35922 13.58381 1417 ft 152 kts 220°
2026-05-06 20:30 59.35080 13.57132 1412 ft 150 kts 220°
2026-05-06 20:31 59.34257 13.55920 1417 ft 150 kts 220°
2026-05-06 20:31 59.33420 13.54680 1418 ft 151 kts 220°
2026-05-06 20:31 59.32579 13.53439 1418 ft 151 kts 220°
2026-05-06 20:31 59.31737 13.52199 1418 ft 151 kts 220°
2026-05-06 20:32 59.30896 13.50967 1419 ft 151 kts 220°
2026-05-06 20:32 59.30055 13.49735 1417 ft 151 kts 220°
2026-05-06 20:32 59.29216 13.48501 1419 ft 151 kts 220°
2026-05-06 20:32 59.28376 13.47266 1421 ft 151 kts 220°
2026-05-06 20:33 59.27566 13.45980 1413 ft 148 kts 233°
2026-05-06 20:33 59.27397 13.44119 1410 ft 144 kts 288°
2026-05-06 20:33 59.28137 13.42858 1413 ft 151 kts 342°
2026-05-06 20:33 59.29196 13.42956 1416 ft 154 kts
2026-05-06 20:34 59.30246 13.43182 1414 ft 152 kts 353°
2026-05-06 20:34 59.31255 13.42658 1411 ft 150 kts 337°
2026-05-06 20:34 59.32200 13.41850 1404 ft 146 kts 316°
2026-05-06 20:34 59.32627 13.40108 1408 ft 144 kts 284°
2026-05-06 20:35 59.32870 13.38203 1411 ft 145 kts 283°
2026-05-06 20:35 59.33116 13.36295 1412 ft 145 kts 284°
2026-05-06 20:35 59.33360 13.34385 1411 ft 145 kts 284°
2026-05-06 20:35 59.33606 13.32473 1413 ft 145 kts 284°
2026-05-06 20:36 59.33849 13.30558 1413 ft 145 kts 283°
2026-05-06 20:36 59.34097 13.28635 1413 ft 145 kts 284°
2026-05-06 20:36 59.34347 13.26724 1410 ft 144 kts 285°
2026-05-06 20:36 59.34989 13.25289 1404 ft 149 kts 335°
2026-05-06 20:37 59.36024 13.25309 1404 ft 155 kts
2026-05-06 20:37 59.37075 13.25823 1371 ft 159 kts 20°
2026-05-06 20:37 59.37966 13.27125 1446 ft 156 kts 36°
2026-05-06 20:37 59.38820 13.28432 1495 ft 158 kts 33°
2026-05-06 20:38 59.39761 13.29593 1458 ft 160 kts 24°
2026-05-06 20:38 59.40782 13.30526 1347 ft 165 kts 19°
2026-05-06 20:38 59.41828 13.31415 1250 ft 148 kts 19°
2026-05-06 20:38 59.42575 13.32016 847 ft 101 kts 18°
2026-05-06 20:39 59.43155 13.32530 567 ft 91 kts 18°
2026-05-06 20:39 59.43713 13.33030 347 ft 78 kts 24°
2026-05-06 20:39 59.44121 13.33402 336 ft 54 kts 28°
2026-05-06 20:39 59.44309 13.33638 337 ft 18 kts 86°
2026-05-06 20:40 59.44262 13.33859 334 ft 17 kts 120°